createdAt,value
2023-03-29T00:02:32.936Z,100.00
2023-03-29T00:05:04.594Z,100.00
2023-03-29T00:07:35.745Z,100.00
2023-03-29T00:10:10.132Z,100.00
2023-03-29T00:12:40.704Z,100.00
2023-03-29T00:15:11.423Z,100.00
2023-03-29T00:17:41.182Z,100.00
2023-03-29T00:20:12.588Z,100.00
2023-03-29T00:22:43.365Z,100.00
2023-03-29T00:25:16.652Z,100.00
2023-03-29T00:27:46.233Z,100.00
2023-03-29T00:30:16.726Z,100.00
2023-03-29T00:32:47.023Z,100.00
2023-03-29T00:35:16.754Z,100.00
2023-03-29T00:37:48.449Z,100.00
2023-03-29T00:40:20.940Z,100.00
2023-03-29T00:42:50.535Z,100.00
2023-03-29T00:45:22.511Z,100.00
2023-03-29T00:47:55.779Z,100.00
2023-03-29T00:50:29.828Z,100.00
2023-03-29T00:53:04.581Z,100.00
2023-03-29T00:55:40.505Z,100.00
2023-03-29T00:58:14.523Z,100.00
2023-03-29T01:00:52.370Z,100.00
2023-03-29T01:03:25.287Z,100.00
2023-03-29T01:06:00.537Z,100.00
2023-03-29T01:08:34.780Z,100.00
2023-03-29T01:11:11.625Z,100.00
2023-03-29T01:13:44.902Z,100.00
2023-03-29T01:16:18.966Z,100.00
2023-03-29T01:18:49.023Z,100.00
2023-03-29T01:21:23.986Z,100.00
2023-03-29T01:24:18.280Z,100.00
2023-03-29T01:27:00.788Z,100.00
2023-03-29T01:29:37.081Z,100.00
2023-03-29T01:32:11.729Z,100.00
2023-03-29T01:34:46.157Z,100.00
2023-03-29T01:37:22.104Z,100.00
2023-03-29T01:39:51.666Z,100.00
2023-03-29T01:42:42.127Z,100.00
2023-03-29T01:45:25.703Z,100.00
2023-03-29T01:48:01.958Z,100.00
2023-03-29T01:50:42.685Z,100.00
2023-03-29T01:53:18.240Z,100.00
2023-03-29T01:55:52.864Z,100.00
2023-03-29T01:58:26.643Z,100.00
2023-03-29T02:01:00.131Z,100.00
2023-03-29T02:03:34.091Z,100.00
2023-03-29T02:06:05.830Z,100.00
2023-03-29T02:08:35.876Z,100.00
2023-03-29T02:11:05.469Z,100.00
2023-03-29T02:13:35.039Z,100.00
2023-03-29T02:16:12.655Z,100.00
2023-03-29T02:18:43.933Z,100.00
2023-03-29T02:21:22.257Z,100.00
2023-03-29T02:23:54.862Z,100.00
2023-03-29T02:26:25.299Z,100.00
2023-03-29T02:28:56.054Z,100.00
2023-03-29T02:31:35.856Z,100.00
2023-03-29T02:34:10.994Z,100.00
2023-03-29T02:36:45.091Z,100.00
2023-03-29T02:39:16.565Z,100.00
2023-03-29T02:41:49.294Z,100.00
2023-03-29T02:44:23.225Z,100.00
2023-03-29T02:47:00.015Z,100.00
2023-03-29T02:49:30.524Z,100.00
2023-03-29T02:52:06.880Z,100.00
2023-03-29T02:54:38.092Z,100.00
2023-03-29T02:57:08.904Z,100.00
2023-03-29T02:59:39.303Z,100.00
2023-03-29T03:02:11.809Z,100.00
2023-03-29T03:04:41.604Z,100.00
2023-03-29T03:07:11.122Z,100.00
2023-03-29T03:09:40.683Z,100.00
2023-03-29T03:12:10.283Z,100.00
2023-03-29T03:14:39.826Z,100.00
2023-03-29T03:17:11.946Z,100.00
2023-03-29T03:19:42.036Z,100.00
2023-03-29T03:22:11.810Z,100.00
2023-03-29T03:24:41.339Z,100.00
2023-03-29T03:27:10.840Z,100.00
2023-03-29T03:29:41.661Z,100.00
2023-03-29T03:32:14.309Z,100.00
2023-03-29T03:34:43.876Z,100.00
2023-03-29T03:37:15.663Z,100.00
2023-03-29T03:39:45.184Z,100.00
2023-03-29T03:42:14.734Z,100.00
2023-03-29T03:44:45.083Z,100.00
2023-03-29T03:47:17.357Z,100.00
2023-03-29T03:49:46.866Z,100.00
2023-03-29T03:52:16.871Z,100.00
2023-03-29T03:54:46.855Z,100.00
2023-03-29T03:57:16.722Z,100.00
2023-03-29T03:59:46.329Z,100.00
2023-03-29T04:02:20.403Z,100.00
2023-03-29T04:04:49.965Z,100.00
2023-03-29T04:07:20.210Z,100.00
2023-03-29T04:09:49.779Z,100.00
2023-03-29T04:12:19.314Z,100.00
2023-03-29T04:14:49.064Z,100.00
2023-03-29T04:17:21.281Z,100.00
2023-03-29T04:19:50.813Z,100.00
2023-03-29T04:22:20.316Z,100.00
2023-03-29T04:24:49.871Z,100.00
2023-03-29T04:27:19.524Z,100.00
2023-03-29T04:29:49.133Z,100.00
2023-03-29T04:32:21.302Z,100.00
2023-03-29T04:34:50.863Z,100.00
2023-03-29T04:37:22.180Z,100.00
2023-03-29T04:39:52.568Z,100.00
2023-03-29T04:42:22.118Z,100.00
2023-03-29T04:44:53.365Z,100.00
2023-03-29T04:47:29.811Z,100.00
2023-03-29T04:49:59.781Z,100.00
2023-03-29T04:52:33.317Z,100.00
2023-03-29T04:55:02.965Z,100.00
2023-03-29T04:57:32.873Z,100.00
2023-03-29T05:00:02.472Z,100.00
2023-03-29T05:02:34.588Z,100.00
2023-03-29T05:05:04.573Z,100.00
2023-03-29T05:07:34.082Z,100.00
2023-03-29T05:10:03.616Z,100.00
2023-03-29T05:12:33.197Z,97.07
2023-03-29T05:15:02.723Z,96.63
2023-03-29T05:17:34.890Z,96.85
2023-03-29T05:20:07.384Z,96.93
2023-03-29T05:22:36.958Z,97.35
2023-03-29T05:25:07.112Z,96.96
2023-03-29T05:27:37.144Z,97.80
2023-03-29T05:30:07.594Z,98.53
2023-03-29T05:32:41.948Z,98.55
2023-03-29T05:35:12.796Z,98.39
2023-03-29T05:37:42.397Z,99.38
2023-03-29T05:40:13.570Z,100.00
2023-03-29T05:42:43.127Z,100.00
2023-03-29T05:45:13.824Z,100.00
2023-03-29T05:47:46.506Z,100.00
2023-03-29T05:50:16.055Z,98.20
2023-03-29T05:52:46.117Z,97.49
2023-03-29T05:55:15.792Z,97.24
2023-03-29T05:57:45.348Z,96.46
2023-03-29T06:00:24.314Z,95.75
2023-03-29T06:03:03.759Z,89.99
2023-03-29T06:05:43.071Z,84.00
2023-03-29T06:08:12.763Z,77.94
2023-03-29T06:10:42.363Z,77.02
2023-03-29T06:13:12.142Z,75.49
2023-03-29T06:15:41.668Z,70.04
2023-03-29T06:18:13.762Z,65.41
2023-03-29T06:20:43.418Z,67.08
2023-03-29T06:23:13.068Z,70.50
2023-03-29T06:25:43.174Z,68.72
2023-03-29T06:28:12.734Z,69.35
2023-03-29T06:30:42.274Z,60.43
2023-03-29T06:33:14.901Z,48.96
2023-03-29T06:35:46.410Z,46.89
2023-03-29T06:38:16.748Z,45.31
2023-03-29T06:40:47.416Z,42.73
2023-03-29T06:43:17.324Z,43.04
2023-03-29T06:45:47.332Z,44.07
2023-03-29T06:48:19.446Z,43.11
2023-03-29T06:50:50.607Z,42.14
2023-03-29T06:53:20.232Z,43.10
2023-03-29T06:55:49.782Z,43.58
2023-03-29T06:58:19.886Z,44.16
2023-03-29T07:00:49.872Z,41.67
2023-03-29T07:03:23.755Z,38.11
2023-03-29T07:06:01.344Z,39.13
2023-03-29T07:08:31.930Z,39.52
2023-03-29T07:11:03.520Z,45.61
2023-03-29T07:13:33.263Z,45.34
2023-03-29T07:16:02.882Z,44.35
2023-03-29T07:18:35.024Z,47.44
2023-03-29T07:21:05.416Z,50.64
2023-03-29T07:23:35.019Z,51.21
2023-03-29T07:26:05.987Z,49.77
2023-03-29T07:28:37.631Z,49.54
2023-03-29T07:31:08.220Z,50.10
2023-03-29T07:33:41.214Z,48.25
2023-03-29T07:36:11.852Z,45.52
2023-03-29T07:38:41.946Z,45.17
2023-03-29T07:41:11.524Z,46.50
2023-03-29T07:43:41.935Z,43.87
2023-03-29T07:46:12.809Z,42.58
2023-03-29T07:48:44.973Z,41.03
2023-03-29T07:51:14.501Z,41.30
2023-03-29T07:53:44.019Z,39.81
2023-03-29T07:56:13.525Z,37.79
2023-03-29T07:58:43.156Z,38.87
2023-03-29T08:01:18.895Z,39.71
2023-03-29T08:03:52.383Z,37.95
2023-03-29T08:06:22.435Z,38.02
2023-03-29T08:08:52.477Z,38.96
2023-03-29T08:11:22.001Z,38.87
2023-03-29T08:13:51.677Z,42.92
2023-03-29T08:16:21.845Z,43.13
2023-03-29T08:18:53.953Z,41.90
2023-03-29T08:21:23.492Z,41.71
2023-03-29T08:23:53.480Z,42.45
2023-03-29T08:26:23.081Z,42.44
2023-03-29T08:28:52.629Z,42.30
2023-03-29T08:31:22.342Z,44.18
2023-03-29T08:33:54.514Z,45.42
2023-03-29T08:36:24.044Z,47.22
2023-03-29T08:38:53.565Z,46.32
2023-03-29T08:41:36.775Z,46.72
2023-03-29T08:44:18.352Z,46.11
2023-03-29T08:46:54.762Z,48.25
2023-03-29T08:49:28.180Z,47.16
2023-03-29T08:52:00.728Z,47.52
2023-03-29T08:54:35.898Z,47.20
2023-03-29T08:57:11.112Z,47.37
2023-03-29T08:59:43.286Z,46.75
2023-03-29T09:02:19.658Z,46.71
2023-03-29T09:04:53.467Z,45.04
2023-03-29T09:07:25.976Z,42.49
2023-03-29T09:09:57.349Z,39.85
2023-03-29T09:12:41.340Z,38.97
2023-03-29T09:15:16.347Z,38.87
2023-03-29T09:17:58.757Z,39.85
2023-03-29T09:20:41.338Z,39.28
2023-03-29T09:23:25.413Z,36.99
2023-03-29T09:26:03.444Z,37.55
2023-03-29T09:28:39.880Z,36.79
2023-03-29T09:31:16.893Z,36.83
2023-03-29T09:33:49.920Z,36.12
2023-03-29T09:36:27.913Z,38.45
2023-03-29T09:38:57.667Z,39.30
2023-03-29T09:41:33.945Z,39.93
2023-03-29T09:44:20.567Z,37.51
2023-03-29T09:47:02.121Z,35.76
2023-03-29T09:49:35.746Z,35.74
2023-03-29T09:52:13.871Z,35.59
2023-03-29T09:54:43.527Z,38.03
2023-03-29T09:57:15.251Z,36.80
2023-03-29T09:59:45.547Z,35.55
2023-03-29T10:02:16.843Z,35.55
2023-03-29T10:04:46.381Z,36.89
2023-03-29T10:07:22.929Z,37.28
2023-03-29T10:09:55.377Z,38.17
2023-03-29T10:12:25.717Z,39.64
2023-03-29T10:14:57.646Z,42.03
2023-03-29T10:17:32.832Z,43.07
2023-03-29T10:20:07.522Z,42.75
2023-03-29T10:22:41.770Z,43.72
2023-03-29T10:25:17.263Z,42.79
2023-03-29T10:27:49.558Z,44.25
2023-03-29T10:30:25.508Z,44.47
2023-03-29T10:32:59.903Z,44.97
2023-03-29T10:35:33.470Z,44.72
2023-03-29T10:38:07.977Z,43.96
2023-03-29T10:40:38.582Z,43.15
2023-03-29T10:43:17.042Z,43.63
2023-03-29T10:45:47.255Z,43.69
2023-03-29T10:48:18.110Z,44.69
2023-03-29T10:50:53.340Z,43.98
2023-03-29T10:53:29.711Z,44.39
2023-03-29T10:56:11.528Z,44.68
2023-03-29T10:58:55.215Z,44.62
2023-03-29T11:01:30.019Z,44.64
2023-03-29T11:04:16.169Z,45.15
2023-03-29T11:06:54.503Z,45.33
2023-03-29T11:09:37.622Z,45.05
2023-03-29T11:12:17.005Z,44.85
2023-03-29T11:15:00.106Z,44.41
2023-03-29T11:17:42.958Z,44.60
2023-03-29T11:20:22.539Z,43.71
2023-03-29T11:22:58.585Z,44.53
2023-03-29T11:25:45.682Z,43.46
2023-03-29T11:28:24.300Z,44.58
2023-03-29T11:31:03.885Z,44.62
2023-03-29T11:33:46.191Z,44.96
2023-03-29T11:36:22.052Z,44.20
2023-03-29T11:39:02.444Z,43.61
2023-03-29T11:41:37.533Z,43.26
2023-03-29T11:44:13.527Z,42.09
2023-03-29T11:46:47.028Z,42.38
2023-03-29T11:49:22.333Z,41.34
2023-03-29T11:51:57.182Z,40.09
2023-03-29T11:54:31.613Z,39.88
2023-03-29T11:57:10.103Z,39.91
2023-03-29T11:59:47.995Z,37.50
2023-03-29T12:02:24.652Z,38.17
2023-03-29T12:04:58.061Z,37.85
2023-03-29T12:07:32.378Z,40.37
2023-03-29T12:10:04.848Z,41.35
2023-03-29T12:12:46.220Z,42.36
2023-03-29T12:15:21.712Z,43.77
2023-03-29T12:18:02.884Z,43.83
2023-03-29T12:20:36.558Z,43.75
2023-03-29T12:23:08.239Z,43.58
2023-03-29T12:25:47.752Z,44.56
2023-03-29T12:28:43.273Z,44.98
2023-03-29T12:31:23.985Z,44.93
2023-03-29T12:34:20.116Z,44.76
2023-03-29T12:37:03.623Z,45.13
2023-03-29T12:39:33.920Z,44.75
2023-03-29T12:42:18.071Z,43.64
2023-03-29T12:44:53.583Z,44.28
2023-03-29T12:47:26.325Z,43.76
2023-03-29T12:49:59.469Z,44.94
2023-03-29T12:52:33.182Z,44.63
2023-03-29T12:55:04.685Z,43.85
2023-03-29T12:57:43.739Z,44.63
2023-03-29T13:00:23.961Z,44.00
2023-03-29T13:03:04.062Z,43.94
2023-03-29T13:05:36.485Z,43.66
2023-03-29T13:08:26.173Z,43.24
2023-03-29T13:10:58.243Z,43.34
2023-03-29T13:13:30.935Z,43.12
2023-03-29T13:16:15.272Z,43.07
2023-03-29T13:18:56.605Z,43.68
2023-03-29T13:21:38.097Z,42.30
2023-03-29T13:24:27.340Z,42.59
2023-03-29T13:27:04.443Z,42.39
2023-03-29T13:29:50.435Z,41.64
2023-03-29T13:32:34.046Z,42.20
2023-03-29T13:35:12.948Z,42.57
2023-03-29T13:37:54.348Z,41.27
2023-03-29T13:40:43.320Z,41.54
2023-03-29T13:43:21.977Z,42.27
2023-03-29T13:46:07.959Z,43.46
2023-03-29T13:48:55.594Z,43.58
2023-03-29T13:51:36.568Z,43.73
2023-03-29T13:54:16.067Z,43.77
2023-03-29T13:56:58.025Z,44.06
2023-03-29T13:59:34.329Z,43.28
2023-03-29T14:02:06.002Z,42.88
2023-03-29T14:04:43.968Z,43.23
2023-03-29T14:07:16.975Z,42.58
2023-03-29T14:09:52.598Z,42.86
2023-03-29T14:12:22.375Z,42.72
2023-03-29T14:14:58.829Z,43.02
2023-03-29T14:17:29.892Z,42.70
2023-03-29T14:20:04.954Z,43.19
2023-03-29T14:22:36.779Z,43.64
2023-03-29T14:25:15.573Z,43.32
2023-03-29T14:27:45.445Z,43.57
2023-03-29T14:30:25.188Z,43.74
2023-03-29T14:32:55.209Z,44.47
2023-03-29T14:35:32.445Z,44.27
2023-03-29T14:38:02.595Z,43.75
2023-03-29T14:40:35.003Z,43.77
2023-03-29T14:43:11.274Z,43.82
2023-03-29T14:45:41.351Z,44.12
2023-03-29T14:48:15.097Z,44.22
2023-03-29T14:50:53.272Z,44.16
2023-03-29T14:53:26.212Z,44.00
2023-03-29T14:55:56.674Z,44.68
2023-03-29T14:58:31.118Z,44.73
2023-03-29T15:01:01.587Z,44.77
2023-03-29T15:03:32.201Z,44.25
2023-03-29T15:06:07.442Z,44.58
2023-03-29T15:08:39.312Z,44.87
2023-03-29T15:11:17.061Z,45.54
2023-03-29T15:13:47.261Z,44.69
2023-03-29T15:16:19.291Z,44.95
2023-03-29T15:18:51.421Z,45.55
2023-03-29T15:21:25.011Z,45.58
2023-03-29T15:23:57.739Z,46.23
2023-03-29T15:26:31.218Z,46.45
2023-03-29T15:29:08.293Z,47.20
2023-03-29T15:31:40.152Z,47.25
2023-03-29T15:34:11.403Z,48.46
2023-03-29T15:36:46.623Z,48.28
2023-03-29T15:39:17.537Z,49.13
2023-03-29T15:41:49.271Z,48.86
2023-03-29T15:44:20.904Z,49.55
2023-03-29T15:46:50.479Z,50.39
2023-03-29T15:49:20.004Z,51.65
2023-03-29T15:51:52.887Z,52.11
2023-03-29T15:54:22.708Z,53.12
2023-03-29T15:56:55.414Z,54.33
2023-03-29T15:59:25.716Z,54.80
2023-03-29T16:01:55.455Z,55.58
2023-03-29T16:04:25.542Z,55.80
2023-03-29T16:06:58.598Z,56.43
2023-03-29T16:09:28.280Z,57.38
2023-03-29T16:12:00.485Z,58.12
2023-03-29T16:14:31.918Z,58.58
2023-03-29T16:17:03.346Z,58.54
2023-03-29T16:19:34.581Z,58.90
2023-03-29T16:22:07.699Z,59.06
2023-03-29T16:24:38.135Z,59.46
2023-03-29T16:27:07.743Z,59.57
2023-03-29T16:29:37.431Z,60.00
2023-03-29T16:32:07.259Z,60.12
2023-03-29T16:34:38.246Z,60.50
2023-03-29T16:37:10.479Z,61.22
2023-03-29T16:39:40.668Z,61.44
2023-03-29T16:42:10.482Z,61.54
2023-03-29T16:44:40.018Z,61.88
2023-03-29T16:47:09.591Z,62.43
2023-03-29T16:49:40.175Z,62.41
2023-03-29T16:52:12.514Z,63.05
2023-03-29T16:54:42.679Z,63.05
2023-03-29T16:57:13.096Z,63.37
2023-03-29T16:59:45.223Z,64.30
2023-03-29T17:02:14.934Z,64.41
2023-03-29T17:04:44.609Z,64.61
2023-03-29T17:07:16.844Z,65.00
2023-03-29T17:09:46.473Z,65.27
2023-03-29T17:12:16.242Z,65.73
2023-03-29T17:14:45.956Z,66.31
2023-03-29T17:17:15.484Z,66.59
2023-03-29T17:19:45.160Z,66.92
2023-03-29T17:22:17.313Z,66.90
2023-03-29T17:24:46.870Z,67.26
2023-03-29T17:27:16.475Z,67.43
2023-03-29T17:29:46.069Z,67.52
2023-03-29T17:32:15.777Z,67.71
2023-03-29T17:34:46.546Z,68.53
2023-03-29T17:37:18.722Z,68.29
2023-03-29T17:39:48.388Z,69.05
2023-03-29T17:42:18.830Z,69.24
2023-03-29T17:44:48.429Z,70.39
2023-03-29T17:47:18.075Z,69.80
2023-03-29T17:52:24.667Z,70.78
2023-03-29T17:54:54.252Z,71.35
2023-03-29T17:57:24.024Z,71.11
2023-03-29T17:59:53.610Z,70.88
2023-03-29T18:02:24.791Z,71.85
2023-03-29T18:04:54.643Z,71.61
2023-03-29T18:07:26.769Z,71.66
2023-03-29T18:09:56.741Z,72.23
2023-03-29T18:12:27.568Z,72.62
2023-03-29T18:14:57.348Z,72.69
2023-03-29T18:17:27.852Z,73.03
2023-03-29T18:19:57.429Z,73.51
2023-03-29T18:22:29.552Z,73.47
2023-03-29T18:24:59.177Z,74.33
2023-03-29T18:27:28.733Z,74.64
2023-03-29T18:29:58.895Z,75.08
2023-03-29T18:32:28.541Z,74.80
2023-03-29T18:34:58.165Z,75.04
2023-03-29T18:37:31.932Z,75.53
2023-03-29T18:40:02.142Z,75.82
2023-03-29T18:42:31.684Z,76.26
2023-03-29T18:45:01.267Z,76.62
2023-03-29T18:47:32.386Z,76.40
2023-03-29T18:50:02.968Z,76.97
2023-03-29T18:52:35.096Z,77.16
2023-03-29T18:55:04.675Z,77.34
2023-03-29T18:57:34.400Z,77.67
2023-03-29T19:00:10.601Z,77.60
2023-03-29T19:02:40.451Z,77.81
2023-03-29T19:05:11.471Z,78.06
2023-03-29T19:07:43.924Z,78.12
2023-03-29T19:10:13.828Z,78.54
2023-03-29T19:12:43.372Z,78.44
2023-03-29T19:15:14.714Z,78.85
2023-03-29T19:17:44.323Z,79.29
2023-03-29T19:20:15.170Z,79.58
2023-03-29T19:22:48.165Z,79.32
2023-03-29T19:25:17.962Z,79.48
2023-03-29T19:30:23.578Z,79.59
2023-03-29T19:32:53.322Z,80.03
2023-03-29T19:35:22.982Z,80.39
2023-03-29T19:37:55.142Z,80.04
2023-03-29T19:40:28.860Z,80.41
2023-03-29T19:42:58.513Z,80.65
2023-03-29T19:45:32.976Z,81.22
2023-03-29T19:48:03.838Z,81.43
2023-03-29T19:50:34.140Z,81.74
2023-03-29T19:53:06.374Z,82.17
2023-03-29T19:55:39.083Z,82.42
2023-03-29T19:58:09.355Z,82.44
2023-03-29T20:00:39.328Z,83.05
2023-03-29T20:03:10.229Z,83.62
2023-03-29T20:05:41.291Z,83.30
2023-03-29T20:08:13.785Z,84.10
2023-03-29T20:10:43.331Z,84.05
2023-03-29T20:15:48.814Z,84.49
2023-03-29T20:18:18.431Z,85.03
2023-03-29T20:20:48.233Z,84.87
2023-03-29T20:23:20.689Z,85.15
2023-03-29T20:25:50.292Z,85.30
2023-03-29T20:28:19.891Z,85.34
2023-03-29T20:30:51.446Z,86.55
2023-03-29T20:33:21.135Z,86.17
2023-03-29T20:35:51.538Z,86.69
2023-03-29T20:38:23.741Z,86.96
2023-03-29T20:40:53.659Z,86.51
2023-03-29T20:43:23.394Z,86.90
2023-03-29T20:45:54.644Z,86.71
2023-03-29T20:48:25.336Z,86.95
2023-03-29T20:50:55.643Z,87.18
2023-03-29T20:53:34.802Z,87.79
2023-03-29T20:56:06.560Z,88.14
2023-03-29T20:58:36.168Z,88.66
2023-03-29T21:01:05.927Z,89.16
2023-03-29T21:03:35.913Z,89.10
2023-03-29T21:06:05.996Z,89.89
2023-03-29T21:08:38.821Z,90.07
2023-03-29T21:11:10.082Z,90.30
2023-03-29T21:13:40.051Z,90.41
2023-03-29T21:16:10.891Z,90.27
2023-03-29T21:18:41.764Z,90.89
2023-03-29T21:21:12.629Z,90.55
2023-03-29T21:23:47.714Z,90.26
2023-03-29T21:26:17.371Z,89.87
2023-03-29T21:28:48.830Z,90.01
2023-03-29T21:31:18.535Z,90.54
2023-03-29T21:33:48.342Z,90.72
2023-03-29T21:36:17.989Z,91.41
2023-03-29T21:38:50.254Z,92.14
2023-03-29T21:41:20.569Z,92.98
2023-03-29T21:43:50.767Z,93.17
2023-03-29T21:46:20.683Z,93.81
2023-03-29T21:48:50.520Z,94.22
2023-03-29T21:51:20.180Z,94.34
2023-03-29T21:53:52.392Z,94.58
2023-03-29T21:56:22.590Z,94.86
2023-03-29T21:58:52.300Z,95.04
2023-03-29T22:01:21.902Z,95.07
2023-03-29T22:03:51.629Z,95.61
2023-03-29T22:06:21.522Z,94.98
2023-03-29T22:08:53.701Z,94.82
2023-03-29T22:11:23.605Z,94.50
2023-03-29T22:13:54.793Z,94.30
2023-03-29T22:16:25.862Z,94.42
2023-03-29T22:18:55.640Z,94.75
2023-03-29T22:21:27.124Z,95.14
2023-03-29T22:24:00.601Z,95.56
2023-03-29T22:26:32.579Z,95.83
2023-03-29T22:29:03.546Z,96.20
2023-03-29T22:31:35.219Z,96.48
2023-03-29T22:34:04.869Z,96.48
2023-03-29T22:36:34.703Z,96.50
2023-03-29T22:39:08.806Z,96.01
2023-03-29T22:41:38.412Z,96.25
2023-03-29T22:44:08.667Z,96.15
2023-03-29T22:46:38.433Z,96.77
2023-03-29T22:49:08.118Z,96.76
2023-03-29T22:51:37.722Z,96.48
2023-03-29T22:54:10.720Z,96.83
2023-03-29T22:56:40.389Z,96.57
2023-03-29T22:59:09.998Z,96.92
2023-03-29T23:01:39.626Z,97.04
2023-03-29T23:04:09.353Z,97.18
2023-03-29T23:06:38.984Z,97.47
2023-03-29T23:09:11.282Z,96.94
2023-03-29T23:11:40.876Z,97.08
2023-03-29T23:14:10.492Z,97.42
2023-03-29T23:16:40.307Z,98.01
2023-03-29T23:19:12.724Z,98.77
2023-03-29T23:21:42.353Z,99.37
2023-03-29T23:24:18.820Z,99.71
2023-03-29T23:26:50.817Z,100.00
2023-03-29T23:29:20.501Z,100.00
2023-03-29T23:31:50.419Z,100.00
2023-03-29T23:34:20.429Z,100.00
2023-03-29T23:36:50.282Z,100.00
2023-03-29T23:39:22.520Z,100.00
2023-03-29T23:41:52.577Z,100.00
2023-03-29T23:44:22.209Z,100.00
2023-03-29T23:46:51.904Z,100.00
2023-03-29T23:49:22.956Z,100.00
2023-03-29T23:51:53.308Z,100.00
2023-03-29T23:54:25.487Z,100.00
2023-03-29T23:56:55.171Z,100.00
2023-03-29T23:59:29.994Z,100.00
